Time;durP1;ratioP1;P1;durP2;ratioP2;P2;SDS_P1;SDS_P2;PMS_P1;PMS_P2;Temp;Humidity;BMP_temperature;BMP_pressure;BME280_temperature;BME280_humidity;BME280_pressure;Samples;Min_cycle;Max_cycle;Signal;HPM_P1;HPM_P2
2021/10/24 00:01:53;;;;;;;6.43;3.07;;;8.40;99.90;;;;;;4975491;28;20214;-71
2021/10/24 01:11:03;;;;;;;3.30;2.30;;;7.80;99.90;;;;;;4922619;29;20215;-69
2021/10/24 01:13:32;;;;;;;3.73;2.47;;;7.80;99.90;;;;;;4955045;28;20715;-69
2021/10/24 01:16:09;;;;;;;6.60;2.23;;;7.80;99.90;;;;;;4955024;28;20573;-69
2021/10/24 01:18:36;;;;;;;4.77;2.20;;;7.80;99.90;;;;;;4955067;28;20232;-69
2021/10/24 01:21:04;;;;;;;5.23;2.57;;;7.90;99.90;;;;;;4955013;28;20208;-69
2021/10/24 01:23:31;;;;;;;4.50;2.67;;;7.90;99.90;;;;;;4954972;28;20219;-69
2021/10/24 01:25:59;;;;;;;3.87;2.40;;;7.90;99.90;;;;;;4954768;28;20211;-69
2021/10/24 01:28:26;;;;;;;4.63;2.47;;;7.90;99.90;;;;;;4954596;28;20228;-69
2021/10/24 01:30:54;;;;;;;3.93;2.60;;;7.90;99.90;;;;;;4955047;28;20226;-69
2021/10/24 01:33:21;;;;;;;3.27;2.23;;;7.90;99.90;;;;;;4954559;28;20246;-69
2021/10/24 01:35:52;;;;;;;5.87;2.50;;;7.80;99.90;;;;;;4954905;28;20212;-69
2021/10/24 01:38:20;;;;;;;4.53;2.63;;;7.70;99.90;;;;;;4954767;28;20712;-69
2021/10/24 01:40:47;;;;;;;9.57;3.10;;;7.60;99.90;;;;;;4954931;28;20208;-69
2021/10/24 01:43:14;;;;;;;5.40;2.33;;;7.50;99.90;;;;;;4954500;28;20663;-69
2021/10/24 01:45:41;;;;;;;4.20;2.40;;;7.50;99.90;;;;;;4955056;28;20222;-69
2021/10/24 01:48:08;;;;;;;5.30;2.03;;;7.60;99.90;;;;;;4954824;28;20224;-69
2021/10/24 01:50:35;;;;;;;3.97;2.57;;;7.60;99.90;;;;;;4954798;28;20309;-69
2021/10/24 01:53:02;;;;;;;9.80;3.07;;;7.70;99.90;;;;;;4956315;28;20239;-68
2021/10/24 01:55:31;;;;;;;4.20;2.57;;;7.60;99.90;;;;;;4958310;28;20215;-69
2021/10/24 01:57:59;;;;;;;4.90;2.73;;;7.60;99.90;;;;;;4958498;28;20224;-68
2021/10/24 02:00:26;;;;;;;3.67;2.20;;;7.50;99.90;;;;;;4958546;28;20224;-68
2021/10/24 02:02:53;;;;;;;4.50;2.80;;;7.30;99.90;;;;;;4958405;28;20215;-69
2021/10/24 02:05:21;;;;;;;3.53;2.50;;;7.30;99.90;;;;;;4958390;28;20214;-68
2021/10/24 02:07:47;;;;;;;3.67;2.30;;;7.30;99.90;;;;;;4958256;28;20807;-69
2021/10/24 02:10:16;;;;;;;5.33;2.43;;;7.40;99.90;;;;;;4958287;28;20561;-69
2021/10/24 02:12:45;;;;;;;4.60;2.40;;;7.50;99.90;;;;;;4958224;28;20565;-68
2021/10/24 02:15:12;;;;;;;7.53;2.53;;;7.50;99.90;;;;;;4958048;28;20210;-69
2021/10/24 02:17:40;;;;;;;4.43;2.60;;;7.50;99.90;;;;;;4957867;28;20228;-68
2021/10/24 02:20:08;;;;;;;3.60;2.33;;;7.40;99.90;;;;;;4958202;28;20208;-68
2021/10/24 02:22:36;;;;;;;6.17;2.30;;;7.30;99.90;;;;;;4958156;28;20208;-68
2021/10/24 02:25:04;;;;;;;4.67;2.40;;;7.30;99.90;;;;;;4958152;28;20211;-68
2021/10/24 02:27:30;;;;;;;4.87;2.57;;;7.20;99.90;;;;;;4957767;28;20715;-68
2021/10/24 02:29:58;;;;;;;7.17;2.33;;;7.20;99.90;;;;;;4958043;28;20298;-68
2021/10/24 02:32:25;;;;;;;3.10;2.40;;;7.30;99.90;;;;;;4957672;28;20212;-68
2021/10/24 02:34:52;;;;;;;4.03;2.43;;;7.30;99.90;;;;;;4957723;28;20603;-68
2021/10/24 02:37:19;;;;;;;5.27;2.17;;;7.30;99.90;;;;;;4957742;28;20246;-68
2021/10/24 02:39:46;;;;;;;4.53;2.17;;;7.30;99.90;;;;;;4957850;28;20240;-68
2021/10/24 02:42:13;;;;;;;7.67;2.67;;;7.20;99.90;;;;;;4957567;28;20208;-68
2021/10/24 02:44:40;;;;;;;6.43;2.50;;;7.20;99.90;;;;;;4957770;28;20230;-68
2021/10/24 02:47:08;;;;;;;5.67;2.53;;;7.10;99.90;;;;;;4957563;28;20208;-68
2021/10/24 02:49:35;;;;;;;4.03;2.30;;;7.00;99.90;;;;;;4957379;28;20218;-68
2021/10/24 02:52:02;;;;;;;4.27;2.47;;;7.00;99.90;;;;;;4957370;28;20212;-68
2021/10/24 02:54:29;;;;;;;3.50;2.30;;;6.90;99.90;;;;;;4957219;28;20249;-68
2021/10/24 02:56:57;;;;;;;3.97;2.57;;;6.90;99.90;;;;;;4957414;28;20212;-68
2021/10/24 02:59:24;;;;;;;4.50;2.23;;;6.80;99.90;;;;;;4957438;28;20214;-68
2021/10/24 03:01:50;;;;;;;4.33;2.80;;;6.80;99.90;;;;;;4957221;28;20214;-68
2021/10/24 03:04:19;;;;;;;4.03;2.50;;;6.70;99.90;;;;;;4955946;28;20213;-68
2021/10/24 03:06:46;;;;;;;7.07;2.80;;;6.70;99.90;;;;;;4957336;28;20208;-68
2021/10/24 03:09:13;;;;;;;3.70;2.40;;;6.70;99.90;;;;;;4957052;28;20730;-68
2021/10/24 03:11:40;;;;;;;4.80;2.50;;;6.70;99.90;;;;;;4956870;28;20219;-68
2021/10/24 03:14:07;;;;;;;5.43;2.23;;;6.70;99.90;;;;;;4956833;28;20240;-69
2021/10/24 03:16:35;;;;;;;3.57;2.30;;;6.70;99.90;;;;;;4957096;28;20208;-68
2021/10/24 03:19:02;;;;;;;5.43;3.00;;;6.60;99.90;;;;;;4956900;28;20731;-68
2021/10/24 03:21:30;;;;;;;4.10;2.60;;;6.70;99.90;;;;;;4956891;28;20204;-68
2021/10/24 03:23:58;;;;;;;4.27;2.40;;;6.80;99.90;;;;;;4957024;28;20230;-69
2021/10/24 03:26:25;;;;;;;3.80;2.80;;;6.70;99.90;;;;;;4956880;28;20208;-68
2021/10/24 03:28:51;;;;;;;3.83;2.60;;;6.70;99.90;;;;;;4956673;28;20224;-68
2021/10/24 03:31:18;;;;;;;4.30;2.80;;;6.60;99.90;;;;;;4956430;28;20211;-68
2021/10/24 03:33:45;;;;;;;4.50;2.53;;;6.60;99.90;;;;;;4956702;28;20708;-68
2021/10/24 03:36:12;;;;;;;4.43;2.80;;;6.70;99.90;;;;;;4956844;28;20219;-68
2021/10/24 03:38:40;;;;;;;4.73;2.53;;;6.70;99.90;;;;;;4956543;28;20331;-68
2021/10/24 03:41:07;;;;;;;4.70;2.60;;;6.70;99.90;;;;;;4956399;28;20212;-69
2021/10/24 03:43:34;;;;;;;4.53;2.53;;;6.70;99.90;;;;;;4956311;28;20216;-68
2021/10/24 03:46:01;;;;;;;5.93;2.47;;;6.60;99.90;;;;;;4956509;28;20216;-68
2021/10/24 03:48:28;;;;;;;4.63;2.87;;;6.60;99.90;;;;;;4956765;28;20657;-68
2021/10/24 03:50:55;;;;;;;4.53;2.80;;;6.50;99.90;;;;;;4956296;28;20259;-68
2021/10/24 03:53:21;;;;;;;5.97;3.00;;;6.60;99.90;;;;;;4956638;28;20236;-68
2021/10/24 03:55:50;;;;;;;5.67;2.83;;;6.40;99.90;;;;;;4956324;28;20664;-68
2021/10/24 03:58:16;;;;;;;4.67;2.70;;;6.50;99.90;;;;;;4956090;28;20230;-68
2021/10/24 04:00:44;;;;;;;9.30;2.87;;;6.50;99.90;;;;;;4956342;28;20565;-68
2021/10/24 04:03:11;;;;;;;4.87;2.80;;;6.60;99.90;;;;;;4956188;28;20233;-68
2021/10/24 04:05:46;;;;;;;4.33;2.33;;;6.50;99.90;;;;;;4956163;28;20214;-68
2021/10/24 04:08:13;;;;;;;3.83;2.60;;;6.50;99.90;;;;;;4955919;28;20235;-69
2021/10/24 04:10:40;;;;;;;3.73;2.37;;;6.30;99.90;;;;;;4955950;28;20222;-68
2021/10/24 04:13:08;;;;;;;5.30;2.27;;;6.30;99.90;;;;;;4955858;28;20204;-68
2021/10/24 04:15:35;;;;;;;7.63;2.60;;;6.30;99.90;;;;;;4955800;28;20208;-70
2021/10/24 04:18:02;;;;;;;6.07;2.63;;;6.30;99.90;;;;;;4956303;28;20255;-69
2021/10/24 04:20:29;;;;;;;3.97;2.57;;;6.20;99.90;;;;;;4955676;28;20219;-69
2021/10/24 04:22:55;;;;;;;4.83;2.63;;;6.20;99.90;;;;;;4955650;28;20290;-69
2021/10/24 04:25:24;;;;;;;4.47;2.20;;;6.30;99.90;;;;;;4955659;28;20208;-69
2021/10/24 04:27:51;;;;;;;6.20;2.50;;;6.30;99.90;;;;;;4955609;28;20230;-69
2021/10/24 04:30:19;;;;;;;5.83;2.47;;;6.20;99.90;;;;;;4955770;28;20219;-69
2021/10/24 04:32:47;;;;;;;4.17;2.43;;;6.20;99.90;;;;;;4955689;28;20208;-69
2021/10/24 04:35:14;;;;;;;6.63;2.67;;;6.10;99.90;;;;;;4955434;28;20254;-69
2021/10/24 04:37:41;;;;;;;4.60;2.83;;;6.10;99.90;;;;;;4955376;28;20234;-69
2021/10/24 04:40:09;;;;;;;4.47;2.70;;;6.10;99.90;;;;;;4955325;28;20208;-69
2021/10/24 04:42:36;;;;;;;3.73;2.43;;;6.10;99.90;;;;;;4955195;28;20204;-70
2021/10/24 04:45:05;;;;;;;3.87;2.53;;;6.00;99.90;;;;;;4955527;28;20214;-69
2021/10/24 04:47:33;;;;;;;6.97;2.50;;;5.90;99.90;;;;;;4955518;28;20239;-69
2021/10/24 04:50:00;;;;;;;4.67;2.60;;;5.80;99.90;;;;;;4955265;28;20215;-70
2021/10/24 04:52:27;;;;;;;3.77;2.43;;;5.90;99.90;;;;;;4955345;28;20303;-69
2021/10/24 04:54:53;;;;;;;4.57;2.60;;;5.80;99.90;;;;;;4955291;28;20712;-70
2021/10/24 04:57:21;;;;;;;5.70;2.50;;;5.90;99.90;;;;;;4955211;28;20231;-69
2021/10/24 04:59:47;;;;;;;3.50;2.30;;;5.90;99.90;;;;;;4955117;28;20767;-70
2021/10/24 05:02:14;;;;;;;4.70;2.53;;;5.80;99.90;;;;;;4954985;28;20211;-69
2021/10/24 05:04:42;;;;;;;7.23;2.50;;;5.90;99.90;;;;;;4955172;28;20604;-70
2021/10/24 05:07:10;;;;;;;5.73;2.60;;;6.00;99.90;;;;;;4955318;28;20695;-70
2021/10/24 05:09:36;;;;;;;4.83;2.30;;;6.00;99.90;;;;;;4955679;28;20243;-70
2021/10/24 05:12:04;;;;;;;4.43;2.63;;;5.80;99.90;;;;;;4955232;28;20219;-69
2021/10/24 05:14:31;;;;;;;5.80;2.20;;;5.80;99.90;;;;;;4955219;28;20240;-70
2021/10/24 05:16:58;;;;;;;4.73;2.40;;;5.90;99.90;;;;;;4955190;28;20578;-70
2021/10/24 05:19:25;;;;;;;5.90;2.63;;;5.90;99.90;;;;;;4955134;28;20260;-70
2021/10/24 05:21:53;;;;;;;3.20;2.20;;;5.80;99.90;;;;;;4955455;28;20239;-69
2021/10/24 05:24:20;;;;;;;4.07;2.37;;;5.70;99.90;;;;;;4955234;28;20285;-70
2021/10/24 05:26:47;;;;;;;5.03;2.70;;;5.60;99.90;;;;;;4955134;28;20258;-70
2021/10/24 05:29:14;;;;;;;5.13;2.47;;;5.60;99.90;;;;;;4958789;28;20314;-70
2021/10/24 05:31:40;;;;;;;5.20;2.33;;;5.70;99.90;;;;;;4959432;28;20302;-70
2021/10/24 05:34:07;;;;;;;4.00;2.37;;;5.70;99.90;;;;;;4959005;28;20299;-70
2021/10/24 05:36:34;;;;;;;4.53;2.50;;;5.60;99.90;;;;;;4959354;28;20310;-70
2021/10/24 05:39:02;;;;;;;5.23;2.33;;;5.70;99.90;;;;;;4958978;28;20256;-69
2021/10/24 05:41:31;;;;;;;3.67;2.27;;;5.70;99.90;;;;;;4959420;28;20290;-70
2021/10/24 05:43:58;;;;;;;6.20;2.80;;;5.70;99.90;;;;;;4958955;28;20223;-70
2021/10/24 05:46:25;;;;;;;5.27;2.00;;;5.60;99.90;;;;;;4959008;28;20266;-70
2021/10/24 05:48:53;;;;;;;3.80;2.40;;;5.50;99.90;;;;;;4959200;28;20235;-70
2021/10/24 05:51:20;;;;;;;4.53;2.27;;;5.60;99.90;;;;;;4959066;28;20320;-70
2021/10/24 05:53:47;;;;;;;6.70;2.10;;;5.50;99.90;;;;;;4958740;28;20218;-70
2021/10/24 05:56:15;;;;;;;3.17;2.10;;;5.50;99.90;;;;;;4958733;28;20299;-70
2021/10/24 05:58:43;;;;;;;3.50;1.97;;;5.60;99.90;;;;;;4958893;28;20255;-70
2021/10/24 06:01:10;;;;;;;4.10;2.63;;;5.60;99.90;;;;;;4958723;28;20219;-70
2021/10/24 06:03:37;;;;;;;7.50;2.33;;;5.60;99.90;;;;;;4958834;28;20224;-70
2021/10/24 06:06:04;;;;;;;3.27;2.10;;;5.50;99.90;;;;;;4959049;28;20212;-70
2021/10/24 06:08:31;;;;;;;4.67;2.73;;;5.70;99.90;;;;;;4959006;28;20243;-70
2021/10/24 06:11:13;;;;;;;3.23;1.87;;;5.60;99.90;;;;;;4958734;28;20251;-70
2021/10/24 06:13:41;;;;;;;4.47;2.30;;;5.60;99.90;;;;;;4958082;28;20698;-69
2021/10/24 06:16:08;;;;;;;4.17;2.80;;;5.70;99.90;;;;;;4958131;28;20298;-70
2021/10/24 06:18:35;;;;;;;2.83;1.77;;;5.70;99.90;;;;;;4958099;28;20322;-68
2021/10/24 06:21:02;;;;;;;4.03;2.07;;;5.60;99.90;;;;;;4958228;28;20208;-68
2021/10/24 06:23:29;;;;;;;5.83;2.27;;;5.60;99.90;;;;;;4958086;28;20212;-68
2021/10/24 06:25:56;;;;;;;8.23;2.53;;;5.60;99.90;;;;;;4957832;28;20232;-69
2021/10/24 06:28:23;;;;;;;2.73;1.83;;;5.80;99.90;;;;;;4957601;28;20318;-68
2021/10/24 06:30:51;;;;;;;2.77;2.17;;;5.80;99.90;;;;;;4957932;28;20218;-69
2021/10/24 06:33:18;;;;;;;4.33;2.80;;;5.80;99.90;;;;;;4958071;28;20215;-68
2021/10/24 06:35:45;;;;;;;3.07;1.97;;;5.90;99.90;;;;;;4958049;28;20216;-68
2021/10/24 06:38:12;;;;;;;6.30;2.30;;;5.80;99.90;;;;;;4957232;28;20236;-69
2021/10/24 06:40:40;;;;;;;3.80;1.97;;;6.00;99.90;;;;;;4957604;28;20214;-69
2021/10/24 06:43:07;;;;;;;7.07;2.60;;;6.00;99.90;;;;;;4957196;28;20212;-68
2021/10/24 06:45:33;;;;;;;6.97;2.13;;;6.10;99.90;;;;;;4957714;28;20248;-68
2021/10/24 06:48:04;;;;;;;3.17;1.80;;;6.10;99.90;;;;;;4957447;28;20737;-69
2021/10/24 06:50:31;;;;;;;5.40;2.40;;;6.10;99.90;;;;;;4957497;28;20239;-69
2021/10/24 06:52:58;;;;;;;2.87;1.90;;;6.20;99.90;;;;;;4957437;28;20558;-69
2021/10/24 06:55:25;;;;;;;5.83;2.53;;;6.20;99.90;;;;;;4957743;28;20347;-69
2021/10/24 06:57:53;;;;;;;5.83;1.90;;;6.30;99.90;;;;;;4957206;28;20236;-69
2021/10/24 07:00:21;;;;;;;5.17;2.27;;;6.30;99.90;;;;;;4957414;28;20298;-69
2021/10/24 07:02:48;;;;;;;3.97;2.33;;;6.40;99.90;;;;;;4957337;28;20214;-69
2021/10/24 07:05:18;;;;;;;5.33;2.40;;;6.40;99.90;;;;;;4957281;28;20236;-69
2021/10/24 07:07:45;;;;;;;3.73;1.90;;;6.50;99.90;;;;;;4957052;28;20224;-68
2021/10/24 07:10:12;;;;;;;3.70;2.20;;;6.50;99.90;;;;;;4956935;28;20572;-68
2021/10/24 07:12:39;;;;;;;4.60;2.20;;;6.90;99.90;;;;;;4956918;28;20224;-68
2021/10/24 07:15:08;;;;;;;4.60;2.20;;;7.40;99.90;;;;;;4957197;28;20212;-68
2021/10/24 07:17:35;;;;;;;2.40;1.77;;;7.80;99.90;;;;;;4957200;28;20236;-69
2021/10/24 07:20:01;;;;;;;7.97;2.13;;;8.40;99.90;;;;;;4956979;28;20208;-69
2021/10/24 07:22:30;;;;;;;3.53;1.57;;;8.90;99.90;;;;;;4956697;28;20240;-69
2021/10/24 07:24:56;;;;;;;2.10;1.40;;;9.40;99.90;;;;;;4956867;28;20236;-69
2021/10/24 07:27:23;;;;;;;8.33;2.07;;;9.80;99.90;;;;;;4956765;28;20224;-69
2021/10/24 07:29:50;;;;;;;4.30;1.73;;;10.30;99.90;;;;;;4956774;28;20302;-69
2021/10/24 07:32:18;;;;;;;2.60;1.97;;;10.60;99.90;;;;;;4956819;28;20550;-69
2021/10/24 07:34:45;;;;;;;1.97;1.27;;;10.80;99.90;;;;;;4956891;28;20241;-69
2021/10/24 07:37:12;;;;;;;3.10;1.77;;;11.00;99.90;;;;;;4956660;28;20207;-69
2021/10/24 07:39:40;;;;;;;1.93;1.20;;;11.30;99.90;;;;;;4956725;28;20215;-68
2021/10/24 07:42:07;;;;;;;3.30;1.27;;;11.40;99.90;;;;;;4956566;28;20208;-69
2021/10/24 07:44:34;;;;;;;1.67;1.00;;;11.10;99.90;;;;;;4956416;28;20739;-68
2021/10/24 07:47:01;;;;;;;3.50;1.30;;;11.30;99.90;;;;;;4956494;28;20234;-69
2021/10/24 07:49:28;;;;;;;1.60;0.90;;;11.60;99.90;;;;;;4956455;28;20208;-69
2021/10/24 07:51:55;;;;;;;2.50;1.33;;;11.50;99.90;;;;;;4955830;28;20215;-69
2021/10/24 07:54:22;;;;;;;2.73;1.10;;;11.70;99.90;;;;;;4956595;28;20208;-69
2021/10/24 07:56:51;;;;;;;5.67;1.33;;;11.70;99.90;;;;;;4956643;28;20218;-69
2021/10/24 07:59:17;;;;;;;1.43;0.90;;;11.40;99.90;;;;;;4956205;28;20224;-69
2021/10/24 08:01:44;;;;;;;2.47;0.93;;;11.70;99.90;;;;;;4956364;28;20208;-69
2021/10/24 08:04:11;;;;;;;2.17;0.90;;;11.90;99.90;;;;;;4956370;28;20218;-69
2021/10/24 08:06:38;;;;;;;2.50;1.20;;;12.10;99.90;;;;;;4956421;28;20245;-69
2021/10/24 08:09:06;;;;;;;1.50;1.03;;;12.30;99.90;;;;;;4955946;28;20716;-69
2021/10/24 08:11:33;;;;;;;1.30;0.83;;;12.20;99.90;;;;;;4956486;28;20215;-70
2021/10/24 08:14:02;;;;;;;2.73;1.03;;;12.00;99.90;;;;;;4955971;28;20207;-69
2021/10/24 08:16:29;;;;;;;1.97;1.03;;;12.20;99.90;;;;;;4956168;28;20218;-69
2021/10/24 08:18:56;;;;;;;2.40;0.97;;;12.30;99.90;;;;;;4955968;28;20588;-69
2021/10/24 08:21:23;;;;;;;2.83;1.20;;;12.60;99.90;;;;;;4955363;28;20239;-69
2021/10/24 08:23:50;;;;;;;1.10;0.90;;;12.50;99.90;;;;;;4955782;28;20208;-70
2021/10/24 08:26:18;;;;;;;2.17;1.20;;;12.40;99.90;;;;;;4955671;28;20239;-70
2021/10/24 08:28:45;;;;;;;2.77;1.23;;;12.10;99.90;;;;;;4955504;28;20228;-69
2021/10/24 08:31:16;;;;;;;2.07;1.10;;;12.00;99.90;;;;;;4955599;28;20727;-70
2021/10/24 08:33:43;;;;;;;1.27;0.80;;;12.20;99.90;;;;;;4955832;28;20372;-69
2021/10/24 08:36:11;;;;;;;2.07;1.10;;;12.40;99.90;;;;;;4955893;28;20235;-70
2021/10/24 08:38:38;;;;;;;2.27;1.20;;;12.50;99.90;;;;;;4955701;28;20244;-69
2021/10/24 08:41:06;;;;;;;1.67;1.00;;;12.70;99.90;;;;;;4955519;28;20212;-69
2021/10/24 08:43:35;;;;;;;2.37;1.20;;;13.00;99.90;;;;;;4955233;28;20208;-69
2021/10/24 08:46:05;;;;;;;2.83;1.30;;;12.70;99.90;;;;;;4955370;28;20242;-70
2021/10/24 08:48:34;;;;;;;2.63;1.20;;;12.40;99.90;;;;;;4955495;28;20708;-69
2021/10/24 08:51:01;;;;;;;3.03;1.47;;;12.10;99.90;;;;;;4955183;28;20617;-69
2021/10/24 08:53:29;;;;;;;1.57;1.00;;;11.60;99.90;;;;;;4955107;28;20218;-69
2021/10/24 08:55:57;;;;;;;3.43;1.97;;;11.30;99.90;;;;;;4955054;28;20684;-69
2021/10/24 08:58:24;;;;;;;4.63;1.43;;;11.10;99.90;;;;;;4954910;28;20230;-69
2021/10/24 09:00:53;;;;;;;2.60;1.17;;;11.00;99.90;;;;;;4955455;28;20208;-69
2021/10/24 09:03:20;;;;;;;3.03;1.20;;;11.10;99.90;;;;;;4955220;28;20641;-69
2021/10/24 09:05:49;;;;;;;4.70;1.17;;;11.10;99.90;;;;;;4955155;28;20236;-69
2021/10/24 09:08:18;;;;;;;1.70;0.90;;;11.10;99.90;;;;;;4955074;28;20228;-69
2021/10/24 09:10:47;;;;;;;4.07;1.20;;;11.20;99.90;;;;;;4954885;28;20216;-69
2021/10/24 09:13:16;;;;;;;2.97;1.10;;;11.30;99.90;;;;;;4955069;28;20211;-69
2021/10/24 09:15:54;;;;;;;4.53;1.10;;;11.30;99.90;;;;;;4955152;28;20675;-70
2021/10/24 09:18:24;;;;;;;1.77;0.90;;;11.20;99.90;;;;;;4955030;28;20228;-68
2021/10/24 09:20:54;;;;;;;2.60;0.80;;;11.00;99.90;;;;;;4955142;28;20226;-68
2021/10/24 09:23:20;;;;;;;2.20;1.00;;;11.00;99.90;;;;;;4955035;28;20665;-68
2021/10/24 09:25:53;;;;;;;2.50;1.10;;;11.00;99.90;;;;;;4954946;28;20239;-68
2021/10/24 09:28:21;;;;;;;2.33;1.00;;;11.10;99.90;;;;;;4955071;28;20562;-68
2021/10/24 09:30:58;;;;;;;2.13;1.10;;;11.20;99.90;;;;;;4954957;28;20208;-69
2021/10/24 09:33:25;;;;;;;3.43;1.17;;;11.40;99.90;;;;;;4954933;28;20216;-69
2021/10/24 09:35:53;;;;;;;3.47;1.10;;;11.50;99.90;;;;;;4954657;28;20204;-68
2021/10/24 09:38:22;;;;;;;3.70;1.00;;;11.60;99.90;;;;;;4954690;28;20224;-69
2021/10/24 09:40:52;;;;;;;1.87;1.17;;;11.40;99.90;;;;;;4955107;28;20204;-68
2021/10/24 09:43:21;;;;;;;1.60;1.07;;;11.40;99.90;;;;;;4954698;28;20570;-68
2021/10/24 09:45:50;;;;;;;2.67;1.70;;;11.50;99.90;;;;;;4954797;28;20243;-69
2021/10/24 09:48:21;;;;;;;2.60;1.20;;;11.50;99.90;;;;;;4954593;28;20232;-68
2021/10/24 09:50:51;;;;;;;4.87;1.00;;;11.50;99.90;;;;;;4954831;28;20668;-69
2021/10/24 09:53:22;;;;;;;2.23;1.20;;;11.60;99.90;;;;;;4954894;28;20208;-69
2021/10/24 09:56:05;;;;;;;2.57;1.00;;;11.60;99.90;;;;;;4954583;28;20303;-69
2021/10/24 09:58:34;;;;;;;1.73;0.80;;;11.60;99.90;;;;;;4954554;28;20314;-69
2021/10/24 10:01:02;;;;;;;3.43;1.00;;;11.70;99.90;;;;;;4954433;28;20211;-69
2021/10/24 10:03:29;;;;;;;1.83;1.00;;;11.80;99.90;;;;;;4954546;28;20208;-68
2021/10/24 10:05:57;;;;;;;2.30;1.00;;;11.80;99.90;;;;;;4954886;28;20236;-69
2021/10/24 10:08:26;;;;;;;5.10;1.27;;;11.90;99.90;;;;;;4954559;28;20228;-69
2021/10/24 10:10:55;;;;;;;2.07;1.20;;;11.90;99.90;;;;;;4954578;28;20219;-69
2021/10/24 10:13:25;;;;;;;5.10;1.23;;;12.00;99.90;;;;;;4954745;28;20204;-69
2021/10/24 10:15:53;;;;;;;2.07;1.00;;;12.10;99.90;;;;;;4958219;28;20208;-69
2021/10/24 10:18:21;;;;;;;2.67;1.07;;;12.10;99.90;;;;;;4957878;28;20228;-68
2021/10/24 10:20:49;;;;;;;3.50;1.13;;;12.20;99.90;;;;;;4957888;28;20668;-69
2021/10/24 10:23:21;;;;;;;3.20;1.03;;;12.30;99.90;;;;;;4957773;28;20204;-69
2021/10/24 10:25:51;;;;;;;3.27;1.13;;;12.50;99.90;;;;;;4957744;28;20322;-68
2021/10/24 10:28:46;;;;;;;2.10;0.80;;;12.40;99.90;;;;;;4957693;28;20315;-69
2021/10/24 10:31:14;;;;;;;3.17;1.20;;;12.50;99.90;;;;;;4957970;28;20296;-68
2021/10/24 10:33:41;;;;;;;1.50;1.00;;;12.50;99.90;;;;;;4957734;28;20576;-69
2021/10/24 10:36:09;;;;;;;2.23;1.30;;;12.60;99.90;;;;;;4957782;28;20220;-69
2021/10/24 10:38:39;;;;;;;2.40;0.90;;;12.60;99.90;;;;;;4957588;28;20723;-69
2021/10/24 10:41:08;;;;;;;2.30;1.00;;;12.60;99.90;;;;;;4957776;28;20240;-68
2021/10/24 10:43:35;;;;;;;2.03;1.10;;;12.60;99.90;;;;;;4957371;28;20204;-68
2021/10/24 10:46:04;;;;;;;2.43;1.30;;;12.60;99.90;;;;;;4957334;28;20739;-69
2021/10/24 10:48:37;;;;;;;1.97;0.90;;;12.70;99.90;;;;;;4957243;28;20224;-69
2021/10/24 10:51:18;;;;;;;3.10;0.90;;;12.60;99.90;;;;;;4957219;28;20570;-68
2021/10/24 10:54:03;;;;;;;2.07;1.00;;;12.70;99.90;;;;;;4957395;28;20267;-69
2021/10/24 10:56:45;;;;;;;2.60;1.20;;;12.80;99.90;;;;;;4957276;28;20215;-69
2021/10/24 10:59:33;;;;;;;1.93;1.10;;;12.80;99.90;;;;;;4957315;28;20242;-68
2021/10/24 11:02:27;;;;;;;2.37;1.00;;;12.90;99.90;;;;;;4957455;28;20218;-70
2021/10/24 11:04:56;;;;;;;2.13;1.00;;;12.80;99.90;;;;;;4957644;28;20282;-70
2021/10/24 11:07:39;;;;;;;1.90;1.17;;;12.90;99.90;;;;;;4956948;28;20246;-70
2021/10/24 11:10:07;;;;;;;1.77;0.80;;;13.00;99.90;;;;;;4955419;28;20238;-69
2021/10/24 11:12:41;;;;;;;1.37;0.90;;;13.10;99.90;;;;;;4956943;28;20702;-69
2021/10/24 11:15:28;;;;;;;1.50;0.93;;;13.10;99.90;;;;;;4957153;28;20207;-69
2021/10/24 11:17:56;;;;;;;1.33;1.00;;;13.00;99.90;;;;;;4956753;28;20259;-70
2021/10/24 11:20:27;;;;;;;2.33;1.10;;;13.00;99.90;;;;;;4957195;28;20208;-70
2021/10/24 11:23:00;;;;;;;2.30;0.97;;;13.00;99.90;;;;;;4956928;28;20219;-70
2021/10/24 11:25:33;;;;;;;2.70;1.13;;;13.00;99.90;;;;;;4955808;28;20214;-70
2021/10/24 11:28:06;;;;;;;2.30;1.00;;;13.00;99.90;;;;;;4956554;28;20232;-70
2021/10/24 11:30:35;;;;;;;1.80;1.10;;;13.10;99.90;;;;;;4956797;28;20204;-70
2021/10/24 11:33:02;;;;;;;2.07;0.90;;;13.20;99.90;;;;;;4956949;28;20208;-69
2021/10/24 11:35:29;;;;;;;3.07;1.30;;;13.40;99.90;;;;;;4956657;28;20211;-70
2021/10/24 11:37:58;;;;;;;1.67;1.00;;;13.20;99.90;;;;;;4956498;28;20228;-70
2021/10/24 11:40:27;;;;;;;2.10;0.80;;;13.30;99.90;;;;;;4956538;28;20212;-70
2021/10/24 11:43:05;;;;;;;1.50;0.90;;;13.30;99.90;;;;;;4956573;28;20668;-70
2021/10/24 11:45:35;;;;;;;2.40;1.40;;;13.30;99.90;;;;;;4956501;28;20628;-70
2021/10/24 11:48:08;;;;;;;1.40;1.00;;;13.30;99.90;;;;;;4956321;28;20232;-70
2021/10/24 11:50:50;;;;;;;1.27;0.80;;;13.40;99.90;;;;;;4956319;28;20214;-70
2021/10/24 11:53:23;;;;;;;2.97;1.00;;;13.40;99.90;;;;;;4949996;28;20221;-71
2021/10/24 11:55:51;;;;;;;1.87;0.90;;;13.50;99.90;;;;;;4946368;29;20296;-70
2021/10/24 12:01:16;;;;;;;1.77;1.03;;;13.60;99.90;;;;;;4920238;29;20205;-70
2021/10/24 12:03:52;;;;;;;5.00;1.47;;;13.60;99.90;;;;;;4946025;29;20570;-71
2021/10/24 12:06:19;;;;;;;3.77;0.80;;;13.70;99.90;;;;;;4939365;28;20243;-74
2021/10/24 12:08:49;;;;;;;1.83;0.73;;;13.70;99.90;;;;;;4964532;23;20240;-74
2021/10/24 12:11:17;;;;;;;1.47;0.70;;;13.70;99.90;;;;;;4955733;29;20560;-74
2021/10/24 12:13:46;;;;;;;2.37;1.00;;;13.50;99.90;;;;;;4945546;29;20292;-74
2021/10/24 12:16:33;;;;;;;2.00;0.90;;;13.50;99.90;;;;;;4936399;29;20219;-76
2021/10/24 12:19:16;;;;;;;4.37;1.13;;;13.60;99.90;;;;;;4930528;29;20268;-76
2021/10/24 12:21:54;;;;;;;1.90;0.73;;;13.60;99.90;;;;;;4935330;29;20209;-75
2021/10/24 12:24:23;;;;;;;2.23;0.90;;;13.70;99.90;;;;;;4921023;29;20206;-74
2021/10/24 12:26:50;;;;;;;3.30;0.90;;;13.70;99.90;;;;;;4915736;29;20336;-72
2021/10/24 12:29:19;;;;;;;1.83;0.80;;;13.80;99.90;;;;;;4915927;29;20225;-75
2021/10/24 12:32:05;;;;;;;3.37;1.10;;;13.80;99.90;;;;;;4916123;29;20215;-73
2021/10/24 12:34:33;;;;;;;1.43;0.73;;;13.90;99.90;;;;;;4931218;29;20219;-76
2021/10/24 12:37:00;;;;;;;1.23;0.90;;;13.90;99.90;;;;;;4934339;29;20209;-73
2021/10/24 12:39:27;;;;;;;4.40;1.00;;;14.00;99.90;;;;;;4916567;29;20563;-73
2021/10/24 12:41:54;;;;;;;2.40;0.97;;;14.10;99.90;;;;;;4916171;29;20305;-74
2021/10/24 12:44:33;;;;;;;1.93;0.83;;;14.10;99.90;;;;;;4915815;29;20220;-76
2021/10/24 12:47:11;;;;;;;4.37;1.10;;;14.10;99.90;;;;;;4915826;29;20245;-74
2021/10/24 12:49:38;;;;;;;1.80;1.00;;;14.10;99.90;;;;;;4932863;29;20209;-76
2021/10/24 12:52:12;;;;;;;2.57;1.10;;;14.00;99.90;;;;;;4934084;29;20684;-74
2021/10/24 12:54:40;;;;;;;3.17;0.90;;;13.80;99.90;;;;;;4933744;29;20212;-76
2021/10/24 12:57:07;;;;;;;1.57;1.10;;;13.90;99.90;;;;;;4934079;29;20217;-75
2021/10/24 12:59:36;;;;;;;1.20;0.80;;;13.90;99.90;;;;;;4915624;29;20249;-76
2021/10/24 13:02:04;;;;;;;2.60;1.00;;;13.90;99.90;;;;;;4915411;29;20226;-74
2021/10/24 13:04:32;;;;;;;1.63;0.83;;;13.80;99.90;;;;;;4930985;29;20213;-79
2021/10/24 13:06:59;;;;;;;4.07;0.80;;;14.00;99.90;;;;;;4934657;29;20236;-77
2021/10/24 13:09:26;;;;;;;3.57;1.13;;;14.00;99.90;;;;;;4916138;29;20217;-74
2021/10/24 13:11:53;;;;;;;1.50;0.90;;;13.80;99.90;;;;;;4915313;29;20663;-74
2021/10/24 13:14:20;;;;;;;1.23;0.90;;;13.80;99.90;;;;;;4928890;29;20639;-75
2021/10/24 13:16:49;;;;;;;2.47;1.00;;;13.90;99.90;;;;;;4922171;29;20222;-76
2021/10/24 13:19:15;;;;;;;2.80;1.13;;;13.90;99.90;;;;;;4925407;29;20239;-75
2021/10/24 13:24:27;;;;;;;1.10;0.80;;;14.10;99.90;;;;;;4934435;29;20577;-75
2021/10/24 13:26:54;;;;;;;1.53;0.97;;;14.10;99.90;;;;;;4934761;29;20240;-77
2021/10/24 13:29:21;;;;;;;2.93;1.40;;;14.20;99.90;;;;;;4934619;29;20229;-74
2021/10/24 18:41:05;;;;;;;1.93;1.40;;;9.10;99.90;;;;;;4929080;29;20692;-72
2021/10/24 18:43:32;;;;;;;5.70;1.73;;;9.10;99.90;;;;;;4925445;29;20220;-71
2021/10/24 18:46:02;;;;;;;4.37;1.93;;;9.20;99.90;;;;;;4927856;29;20232;-71
2021/10/24 18:48:29;;;;;;;2.70;1.60;;;9.10;99.90;;;;;;4925273;29;20599;-71
2021/10/24 18:50:59;;;;;;;2.47;1.57;;;9.10;99.90;;;;;;4930539;29;20213;-71
2021/10/24 18:53:27;;;;;;;5.07;1.87;;;9.00;99.90;;;;;;4931140;29;20205;-71
2021/10/24 18:55:55;;;;;;;3.67;1.83;;;9.00;99.90;;;;;;4929676;29;20226;-70
2021/10/24 18:58:25;;;;;;;4.70;2.13;;;8.90;99.90;;;;;;4924097;29;20216;-71
2021/10/24 19:00:52;;;;;;;3.03;2.03;;;8.90;99.90;;;;;;4930693;29;20278;-70
2021/10/24 19:03:19;;;;;;;3.57;2.10;;;8.80;99.90;;;;;;4925644;29;20205;-71
2021/10/24 19:05:47;;;;;;;4.03;2.30;;;8.90;99.90;;;;;;4931168;29;20229;-71
2021/10/24 19:08:14;;;;;;;4.50;2.00;;;8.90;99.90;;;;;;4930659;29;20237;-71
2021/10/24 19:10:41;;;;;;;4.63;2.30;;;8.90;99.90;;;;;;4934975;29;20211;-72
2021/10/24 19:13:12;;;;;;;4.67;2.23;;;9.00;99.90;;;;;;4925314;29;20693;-70
2021/10/24 19:15:41;;;;;;;3.97;2.27;;;9.00;99.90;;;;;;4931445;29;20212;-71
2021/10/24 19:18:08;;;;;;;5.57;2.27;;;9.00;99.90;;;;;;4923673;29;20210;-72
2021/10/24 19:20:35;;;;;;;5.83;1.87;;;9.00;99.90;;;;;;4925216;29;20284;-72
2021/10/24 19:23:01;;;;;;;5.27;2.13;;;9.00;99.90;;;;;;4928423;29;20219;-70